Time;durP1;ratioP1;P1;durP2;ratioP2;P2;SDS_P1;SDS_P2;PMS_P1;PMS_P2;Temp;Humidity;BMP_temperature;BMP_pressure;BME280_temperature;BME280_humidity;BME280_pressure;Samples;Min_cycle;Max_cycle;Signal;HPM_P1;HPM_P2
2022/05/06 00:01:07;;;;;;;47.50;29.70;;;8.30;82.20;;;;;;5042809;28;20518;-66
2022/05/06 00:03:33;;;;;;;61.93;33.13;;;8.30;82.40;;;;;;5012434;28;20048;-66
2022/05/06 00:05:58;;;;;;;52.83;30.97;;;8.30;81.90;;;;;;4996544;28;20048;-66
2022/05/06 00:08:25;;;;;;;54.13;31.27;;;8.30;82.30;;;;;;5054617;28;20357;-66
2022/05/06 00:10:51;;;;;;;49.13;29.60;;;8.30;81.80;;;;;;5036752;28;20530;-66
2022/05/06 00:13:17;;;;;;;58.33;32.63;;;8.30;81.60;;;;;;5022933;28;20143;-66
2022/05/06 00:15:43;;;;;;;54.83;30.70;;;8.40;81.70;;;;;;5052808;28;20179;-66
2022/05/06 00:18:08;;;;;;;53.07;29.33;;;8.40;81.80;;;;;;5069605;28;20615;-66
2022/05/06 00:20:34;;;;;;;49.60;29.67;;;8.40;81.40;;;;;;5072390;28;20507;-66
2022/05/06 00:23:00;;;;;;;51.23;29.47;;;8.40;81.50;;;;;;5021122;28;20052;-66
2022/05/06 00:25:27;;;;;;;50.92;28.27;;;8.40;81.60;;;;;;5069661;28;20397;-66
2022/05/06 00:27:53;;;;;;;49.65;29.35;;;8.50;81.50;;;;;;5045332;28;20055;-66
2022/05/06 00:30:18;;;;;;;50.05;28.17;;;8.50;81.40;;;;;;5049491;28;20488;-66
2022/05/06 00:32:44;;;;;;;53.63;28.83;;;8.50;81.50;;;;;;5051568;28;20047;-66
2022/05/06 00:35:10;;;;;;;50.13;29.27;;;8.50;81.40;;;;;;5019375;28;20442;-66
2022/05/06 00:37:36;;;;;;;48.90;28.13;;;8.50;81.30;;;;;;5066379;28;20037;-66
2022/05/06 00:40:03;;;;;;;48.08;27.95;;;8.50;81.40;;;;;;5033093;28;20047;-66
2022/05/06 00:42:28;;;;;;;51.35;30.10;;;8.50;81.30;;;;;;5067377;28;20454;-66
2022/05/06 00:44:54;;;;;;;51.83;29.13;;;8.50;81.20;;;;;;5039851;28;20163;-66
2022/05/06 00:47:22;;;;;;;47.37;27.43;;;8.40;81.20;;;;;;5072291;28;20042;-66
2022/05/06 00:49:48;;;;;;;51.25;29.30;;;8.40;81.20;;;;;;5030664;28;20713;-66
2022/05/06 00:52:16;;;;;;;56.30;30.02;;;8.40;81.20;;;;;;5031967;28;20045;-66
2022/05/06 00:54:43;;;;;;;57.70;30.73;;;8.50;81.20;;;;;;5070015;28;20055;-66
2022/05/06 00:57:09;;;;;;;65.65;31.65;;;8.50;81.30;;;;;;5065582;28;20091;-66
2022/05/06 01:00:17;;;;;;;46.55;27.17;;;8.50;81.50;;;;;;5032212;28;20044;-66
2022/05/06 01:02:23;;;;;;;65.50;29.52;;;8.60;81.70;;;;;;5045663;28;20403;-66
2022/05/06 01:04:50;;;;;;;138.82;33.45;;;8.60;82.00;;;;;;5030287;28;20490;-66
2022/05/06 01:07:17;;;;;;;53.00;25.30;;;8.80;83.80;;;;;;5049684;28;20053;-66
2022/05/06 01:09:42;;;;;;;40.50;21.38;;;8.80;83.50;;;;;;5008028;28;20045;-66
2022/05/06 01:12:09;;;;;;;33.33;20.83;;;8.90;83.40;;;;;;5054346;28;20471;-66
2022/05/06 01:14:35;;;;;;;44.40;23.88;;;8.90;83.40;;;;;;5051728;28;20567;-66
2022/05/06 01:17:01;;;;;;;39.13;22.80;;;9.00;83.50;;;;;;5045813;28;20049;-66
2022/05/06 01:19:27;;;;;;;39.93;22.77;;;9.00;83.50;;;;;;5032027;28;20488;-66
2022/05/06 01:21:56;;;;;;;57.83;28.07;;;9.10;83.50;;;;;;5072221;28;20506;-66
2022/05/06 01:24:21;;;;;;;61.55;29.88;;;9.10;83.60;;;;;;5042057;28;20040;-66
2022/05/06 01:27:08;;;;;;;49.83;27.27;;;9.20;84.10;;;;;;5079073;28;20049;-66
2022/05/06 01:29:36;;;;;;;44.33;25.73;;;9.20;83.90;;;;;;5046554;28;20045;-66
2022/05/06 01:32:02;;;;;;;53.83;28.27;;;9.30;83.80;;;;;;5043564;28;20040;-66
2022/05/06 01:34:29;;;;;;;66.27;33.17;;;9.30;83.40;;;;;;5033531;28;20043;-66
2022/05/06 01:36:57;;;;;;;85.65;37.08;;;9.40;83.10;;;;;;5070659;28;20048;-66
2022/05/06 01:39:33;;;;;;;65.75;33.90;;;9.50;83.40;;;;;;5060348;28;20053;-66
2022/05/06 01:42:04;;;;;;;67.22;34.33;;;9.60;83.50;;;;;;5042992;28;20044;-66
2022/05/06 01:44:37;;;;;;;69.20;34.88;;;9.70;83.20;;;;;;5030279;28;20592;-66
2022/05/06 01:47:08;;;;;;;80.50;37.83;;;9.80;83.40;;;;;;5059304;28;20503;-66
2022/05/06 01:49:36;;;;;;;70.93;35.90;;;9.90;83.40;;;;;;5009322;28;20128;-66
2022/05/06 01:52:02;;;;;;;87.85;39.78;;;10.00;84.00;;;;;;5063555;28;20389;-66
2022/05/06 01:54:28;;;;;;;74.83;37.23;;;10.00;83.50;;;;;;5019358;28;20384;-66
2022/05/06 01:56:53;;;;;;;77.30;38.43;;;10.10;83.60;;;;;;5031598;28;20048;-66
2022/05/06 01:59:19;;;;;;;74.63;37.87;;;10.10;83.40;;;;;;5029562;28;20510;-66
2022/05/06 02:01:45;;;;;;;85.00;38.70;;;10.20;85.40;;;;;;5031281;28;20076;-66
2022/05/06 02:06:54;;;;;;;84.93;38.58;;;10.20;85.80;;;;;;5041019;28;20083;-66
2022/05/06 02:09:20;;;;;;;75.57;38.33;;;10.30;85.40;;;;;;5043100;28;20076;-66
2022/05/06 02:11:46;;;;;;;76.50;37.10;;;10.30;85.00;;;;;;5035773;28;20238;-66
2022/05/06 02:14:12;;;;;;;84.03;39.97;;;10.30;85.00;;;;;;5058606;28;20048;-66
2022/05/06 02:16:38;;;;;;;62.63;33.93;;;10.30;85.00;;;;;;5039078;28;20064;-66
2022/05/06 02:19:06;;;;;;;113.20;42.60;;;10.30;84.70;;;;;;5037568;28;20044;-66
2022/05/06 02:21:32;;;;;;;256.38;50.90;;;10.30;85.40;;;;;;5039438;28;20040;-66
2022/05/06 02:23:57;;;;;;;112.23;39.40;;;10.30;85.80;;;;;;5033625;28;20451;-66
2022/05/06 02:26:23;;;;;;;65.43;34.97;;;10.30;85.80;;;;;;5032706;28;20040;-66
2022/05/06 02:28:49;;;;;;;86.17;37.70;;;10.30;85.70;;;;;;5027014;28;20076;-66
2022/05/06 02:33:58;;;;;;;77.70;36.85;;;10.30;85.60;;;;;;5041015;28;20083;-66
2022/05/06 02:36:24;;;;;;;304.37;52.57;;;10.30;85.50;;;;;;5014591;28;20029;-66
2022/05/06 02:38:50;;;;;;;119.40;41.07;;;10.30;85.70;;;;;;5014100;28;20055;-66
2022/05/06 02:41:16;;;;;;;421.93;58.37;;;10.20;86.20;;;;;;5062766;28;20037;-66
2022/05/06 02:43:42;;;;;;;260.73;45.92;;;10.20;86.10;;;;;;5041485;28;20050;-66
2022/05/06 02:46:08;;;;;;;99.40;39.92;;;10.20;86.00;;;;;;5040701;28;20118;-66
2022/05/06 02:48:34;;;;;;;141.30;41.07;;;10.20;85.80;;;;;;5066238;28;20048;-66
2022/05/06 02:51:00;;;;;;;106.73;39.00;;;10.20;85.90;;;;;;5062988;28;20373;-66
2022/05/06 02:53:25;;;;;;;176.60;40.33;;;10.20;86.00;;;;;;5042197;28;20032;-66
2022/05/06 02:55:51;;;;;;;124.90;38.13;;;10.20;85.90;;;;;;5044943;28;20036;-66
2022/05/06 02:58:17;;;;;;;179.47;42.13;;;10.20;85.80;;;;;;5047055;28;20044;-66
2022/05/06 03:00:43;;;;;;;143.73;38.07;;;10.20;85.70;;;;;;5066246;28;20051;-66
2022/05/06 03:03:09;;;;;;;93.55;33.03;;;10.20;86.00;;;;;;5016496;28;20036;-66
2022/05/06 03:05:34;;;;;;;199.90;40.33;;;10.20;86.00;;;;;;5061184;28;20114;-66
2022/05/06 03:08:00;;;;;;;89.90;32.23;;;10.20;85.60;;;;;;5056756;28;20808;-66
2022/05/06 03:10:26;;;;;;;123.20;34.77;;;10.20;85.80;;;;;;5041076;28;20079;-66
2022/05/06 03:12:56;;;;;;;71.40;32.40;;;10.20;85.70;;;;;;5046468;28;20040;-66
2022/05/06 03:15:21;;;;;;;82.10;34.13;;;10.20;85.40;;;;;;5033171;28;20098;-66
2022/05/06 03:17:47;;;;;;;84.80;31.93;;;10.20;85.30;;;;;;5082666;28;20504;-66
2022/05/06 03:20:13;;;;;;;89.47;34.33;;;10.20;85.20;;;;;;5058893;28;20040;-66
2022/05/06 03:22:46;;;;;;;289.40;37.97;;;10.20;85.10;;;;;;5045205;28;20147;-66
2022/05/06 03:25:13;;;;;;;82.53;28.83;;;10.20;85.00;;;;;;5056958;28;20573;-66
2022/05/06 03:30:23;;;;;;;150.77;27.20;;;10.20;84.80;;;;;;5052265;28;20047;-66
2022/05/06 03:32:50;;;;;;;231.30;29.92;;;10.20;85.10;;;;;;5032324;28;20124;-66
2022/05/06 03:35:16;;;;;;;111.50;26.15;;;10.10;85.10;;;;;;5054123;28;20038;-66
2022/05/06 03:37:42;;;;;;;150.82;22.38;;;10.10;85.20;;;;;;5044342;28;20142;-66
2022/05/06 03:40:08;;;;;;;72.45;20.15;;;10.00;85.60;;;;;;5053172;28;20586;-66
2022/05/06 03:42:34;;;;;;;221.27;28.98;;;10.00;85.80;;;;;;5018872;28;20043;-66
2022/05/06 03:45:02;;;;;;;86.67;20.23;;;9.90;85.90;;;;;;5071590;28;20048;-66
2022/05/06 03:47:28;;;;;;;213.57;26.85;;;9.90;85.90;;;;;;5076191;28;20488;-66
2022/05/06 03:52:37;;;;;;;58.55;20.65;;;9.90;86.20;;;;;;5065446;28;20488;-66
2022/05/06 03:55:04;;;;;;;50.20;18.97;;;9.90;86.00;;;;;;5064577;28;20252;-66
2022/05/06 03:57:29;;;;;;;53.67;18.92;;;9.90;86.00;;;;;;5043306;28;20041;-66
2022/05/06 03:59:55;;;;;;;62.37;18.70;;;9.90;85.90;;;;;;5054442;28;20327;-66
2022/05/06 04:02:21;;;;;;;47.67;17.83;;;9.90;85.70;;;;;;5049879;28;20079;-66
2022/05/06 04:04:47;;;;;;;70.17;18.27;;;9.90;85.70;;;;;;5050919;28;20481;-66
2022/05/06 04:07:14;;;;;;;60.17;17.30;;;10.00;85.60;;;;;;5035357;28;20511;-66
2022/05/06 04:09:41;;;;;;;88.45;19.98;;;10.00;85.50;;;;;;5050591;28;20500;-66
2022/05/06 04:12:09;;;;;;;37.88;15.68;;;10.00;85.40;;;;;;5063745;28;20052;-66
2022/05/06 04:14:35;;;;;;;45.63;16.20;;;10.00;85.60;;;;;;5081896;28;20048;-66
2022/05/06 04:17:03;;;;;;;103.70;18.67;;;10.00;85.50;;;;;;5072987;28;20032;-66
2022/05/06 04:19:29;;;;;;;53.95;14.95;;;10.00;85.30;;;;;;5041017;28;20402;-66
2022/05/06 04:24:39;;;;;;;50.03;13.18;;;9.80;85.10;;;;;;5055649;28;20118;-66
2022/05/06 04:27:06;;;;;;;37.87;13.07;;;9.80;85.50;;;;;;5057733;28;20226;-66
2022/05/06 04:29:31;;;;;;;45.22;13.88;;;9.70;85.70;;;;;;5087959;28;20082;-66
2022/05/06 04:31:57;;;;;;;94.67;14.10;;;9.70;85.90;;;;;;5059060;28;20043;-66
2022/05/06 04:34:23;;;;;;;47.00;11.77;;;9.70;85.60;;;;;;5055612;28;20044;-66
2022/05/06 04:36:49;;;;;;;46.42;10.48;;;9.70;85.60;;;;;;5073752;28;20067;-66
2022/05/06 04:39:16;;;;;;;25.70;8.87;;;9.70;85.60;;;;;;5048267;28;20680;-66
2022/05/06 04:41:43;;;;;;;35.35;9.15;;;9.70;85.50;;;;;;5033286;28;20592;-66
2022/05/06 04:44:08;;;;;;;51.63;11.75;;;9.70;85.60;;;;;;5061426;28;20163;-66
2022/05/06 04:46:34;;;;;;;19.83;8.07;;;9.70;85.90;;;;;;5065587;28;20512;-66
2022/05/06 04:49:00;;;;;;;41.93;8.87;;;9.70;85.80;;;;;;5028462;28;20077;-66
2022/05/06 04:51:26;;;;;;;56.67;11.40;;;9.70;85.90;;;;;;5059013;28;20052;-66
2022/05/06 04:53:54;;;;;;;23.27;7.93;;;9.70;86.30;;;;;;5040647;28;20046;-66
2022/05/06 04:56:22;;;;;;;37.22;8.88;;;9.60;86.70;;;;;;5058768;28;20496;-66
2022/05/06 04:58:48;;;;;;;35.25;9.38;;;9.70;86.80;;;;;;5037261;28;20131;-66
2022/05/06 05:01:13;;;;;;;19.20;8.57;;;9.80;86.70;;;;;;5057653;28;20143;-66
2022/05/06 05:03:39;;;;;;;19.00;8.33;;;9.80;86.70;;;;;;5033754;28;20041;-66
2022/05/06 05:06:07;;;;;;;29.03;9.13;;;9.90;86.70;;;;;;5089913;28;20040;-66
2022/05/06 05:08:33;;;;;;;22.15;8.07;;;9.90;86.90;;;;;;5038376;28;20566;-66
2022/05/06 05:11:02;;;;;;;27.13;9.00;;;10.00;86.80;;;;;;5063678;28;20044;-66
2022/05/06 05:13:34;;;;;;;31.38;9.18;;;10.00;86.80;;;;;;5065334;28;20403;-66
2022/05/06 05:16:00;;;;;;;30.55;8.60;;;10.10;86.70;;;;;;5043779;28;20561;-66
2022/05/06 05:18:26;;;;;;;14.33;8.47;;;10.10;86.60;;;;;;5057272;28;20053;-66
2022/05/06 05:20:51;;;;;;;16.43;8.33;;;10.10;86.60;;;;;;5075950;28;20033;-66
2022/05/06 05:23:17;;;;;;;19.70;8.80;;;10.20;86.30;;;;;;5044180;28;20131;-66
2022/05/06 05:25:43;;;;;;;30.00;10.17;;;10.20;86.20;;;;;;5054960;28;20052;-66
2022/05/06 05:28:09;;;;;;;27.50;9.55;;;10.30;86.20;;;;;;5043484;28;20048;-66
2022/05/06 05:30:35;;;;;;;33.40;10.60;;;10.30;86.30;;;;;;5028468;28;20431;-66
2022/05/06 05:33:01;;;;;;;22.70;9.10;;;10.40;86.50;;;;;;5032343;28;20485;-66
2022/05/06 05:35:29;;;;;;;19.30;8.45;;;10.50;86.30;;;;;;5078757;28;20048;-66
2022/05/06 05:37:55;;;;;;;82.85;12.43;;;10.50;86.20;;;;;;5038764;28;20420;-66
2022/05/06 05:40:21;;;;;;;32.03;9.40;;;10.60;86.00;;;;;;5058259;28;20045;-66
2022/05/06 05:42:47;;;;;;;17.87;9.30;;;10.50;86.00;;;;;;5060211;28;20094;-66
2022/05/06 05:48:19;;;;;;;22.90;10.82;;;10.50;86.10;;;;;;5047713;28;20056;-66
2022/05/06 05:50:45;;;;;;;23.65;10.50;;;10.50;86.10;;;;;;5060920;28;20048;-66
2022/05/06 05:53:11;;;;;;;33.97;11.57;;;10.60;86.00;;;;;;5041817;28;20086;-66
2022/05/06 05:55:37;;;;;;;89.00;15.83;;;10.60;85.90;;;;;;5058806;28;20076;-66
2022/05/06 05:58:03;;;;;;;29.40;15.20;;;10.60;85.80;;;;;;5040749;28;20389;-66
2022/05/06 06:00:28;;;;;;;37.57;15.10;;;10.50;85.90;;;;;;5057630;28;20033;-66
2022/05/06 06:02:56;;;;;;;20.97;13.00;;;10.60;86.00;;;;;;5034172;28;20045;-66
2022/05/06 06:05:22;;;;;;;20.08;13.77;;;10.60;86.30;;;;;;5068324;28;20047;-66
2022/05/06 06:07:48;;;;;;;33.42;14.20;;;10.70;86.30;;;;;;5031532;28;20044;-66
2022/05/06 06:10:13;;;;;;;53.57;16.20;;;10.80;85.80;;;;;;5064076;28;20128;-66
2022/05/06 06:12:39;;;;;;;52.83;14.97;;;10.80;85.80;;;;;;5058803;28;20070;-66
2022/05/06 06:15:06;;;;;;;47.57;13.97;;;10.80;85.70;;;;;;5056216;28;20055;-66
2022/05/06 06:17:32;;;;;;;35.92;13.98;;;10.80;85.40;;;;;;5047786;28;20033;-67
2022/05/06 06:19:58;;;;;;;21.43;13.27;;;10.70;85.40;;;;;;5062666;28;20551;-67
2022/05/06 06:22:24;;;;;;;18.98;12.70;;;10.60;85.60;;;;;;5065886;28;20041;-66
2022/05/06 06:24:50;;;;;;;26.27;13.43;;;10.60;85.80;;;;;;5053667;28;20064;-66
2022/05/06 06:27:15;;;;;;;20.47;13.40;;;10.50;85.90;;;;;;5044365;28;20051;-66
2022/05/06 06:29:41;;;;;;;29.00;14.30;;;10.60;86.20;;;;;;5064656;28;20044;-67
2022/05/06 06:32:07;;;;;;;15.83;11.83;;;10.60;86.00;;;;;;5034294;28;20560;-66
2022/05/06 06:34:33;;;;;;;21.05;13.02;;;10.70;85.90;;;;;;5061356;28;20416;-66
2022/05/06 06:36:59;;;;;;;16.73;12.63;;;10.80;85.50;;;;;;5025693;28;20551;-66
2022/05/06 06:39:25;;;;;;;20.57;14.77;;;10.80;85.30;;;;;;5048668;28;20044;-66
2022/05/06 06:41:50;;;;;;;20.30;13.20;;;10.80;84.80;;;;;;5064317;28;20869;-66
2022/05/06 06:44:16;;;;;;;18.73;13.17;;;10.90;85.20;;;;;;5045544;28;20491;-66
2022/05/06 06:46:42;;;;;;;17.43;12.90;;;11.00;85.10;;;;;;5040264;28;20043;-66
2022/05/06 06:49:08;;;;;;;18.47;12.97;;;11.10;85.20;;;;;;5063525;28;20086;-66
2022/05/06 06:51:33;;;;;;;14.23;11.70;;;11.30;84.80;;;;;;5057580;28;20287;-67
2022/05/06 06:53:59;;;;;;;15.13;11.50;;;11.40;83.50;;;;;;5069906;28;20361;-67
2022/05/06 06:56:25;;;;;;;16.00;11.30;;;11.50;83.00;;;;;;5035988;28;20033;-67
2022/05/06 06:58:50;;;;;;;15.40;11.73;;;11.60;83.00;;;;;;5056740;28;20512;-67
2022/05/06 07:01:16;;;;;;;14.90;11.87;;;11.80;82.50;;;;;;5046569;28;20048;-66
2022/05/06 07:03:42;;;;;;;15.70;10.93;;;12.00;82.20;;;;;;5038699;28;20029;-67
2022/05/06 07:11:55;;;;;;;14.67;11.47;;;12.10;80.30;;;;;;5050246;28;20638;-67
2022/05/06 07:14:21;;;;;;;14.30;10.37;;;12.30;80.10;;;;;;5058060;28;20366;-67
2022/05/06 07:16:51;;;;;;;12.63;10.20;;;12.50;79.40;;;;;;5066317;28;20373;-67
2022/05/06 07:19:17;;;;;;;12.53;9.37;;;12.70;79.10;;;;;;5042060;28;20406;-67
2022/05/06 07:21:42;;;;;;;11.03;9.20;;;12.80;79.00;;;;;;5060186;28;20361;-67
2022/05/06 07:24:08;;;;;;;11.50;9.13;;;12.90;77.80;;;;;;5058611;28;20301;-67
2022/05/06 07:26:34;;;;;;;11.50;9.83;;;13.10;77.80;;;;;;5051047;28;20120;-67
2022/05/06 07:29:00;;;;;;;10.83;8.93;;;13.50;77.80;;;;;;5045179;28;20301;-66
2022/05/06 07:31:25;;;;;;;9.43;8.53;;;13.80;76.30;;;;;;5052695;28;20412;-67
2022/05/06 07:33:51;;;;;;;11.07;9.03;;;14.00;75.10;;;;;;5032488;28;20102;-67
2022/05/06 07:36:17;;;;;;;9.23;7.77;;;14.00;74.40;;;;;;5045375;28;20111;-66
2022/05/06 07:38:42;;;;;;;9.70;8.63;;;14.20;73.60;;;;;;5046001;28;20077;-67
2022/05/06 07:41:08;;;;;;;9.00;6.87;;;14.30;72.70;;;;;;5078725;28;20098;-67
2022/05/06 07:43:34;;;;;;;7.73;6.93;;;14.30;73.50;;;;;;5048290;28;20063;-67
2022/05/06 07:46:00;;;;;;;10.33;7.47;;;14.40;72.60;;;;;;5034786;28;20045;-67
2022/05/06 07:48:26;;;;;;;7.73;6.93;;;14.50;72.30;;;;;;5071704;28;20318;-67
2022/05/06 07:50:51;;;;;;;7.53;6.77;;;14.60;72.40;;;;;;5068984;28;20041;-67
2022/05/06 07:53:17;;;;;;;7.07;6.07;;;14.40;70.80;;;;;;5068390;28;20037;-67
2022/05/06 07:55:43;;;;;;;7.87;6.93;;;14.30;71.80;;;;;;5054663;28;20580;-67
2022/05/06 07:58:09;;;;;;;7.30;6.33;;;14.40;71.30;;;;;;5043649;28;20052;-67
2022/05/06 08:00:36;;;;;;;7.10;6.07;;;14.40;71.50;;;;;;5037545;28;20033;-67
2022/05/06 08:05:47;;;;;;;7.20;6.05;;;14.70;71.20;;;;;;5055749;28;20397;-67
2022/05/06 08:08:16;;;;;;;6.70;5.90;;;14.80;70.50;;;;;;5050733;28;20877;-67
2022/05/06 08:10:44;;;;;;;5.60;5.10;;;14.80;70.60;;;;;;5044221;28;20370;-67
2022/05/06 08:13:10;;;;;;;7.23;5.80;;;14.90;70.00;;;;;;5061870;28;20319;-67
2022/05/06 08:15:35;;;;;;;8.07;5.30;;;14.90;68.00;;;;;;5057266;28;21130;-67
2022/05/06 08:18:01;;;;;;;5.20;4.70;;;14.80;70.10;;;;;;5045147;28;20386;-67
2022/05/06 08:20:27;;;;;;;6.13;5.53;;;14.80;69.70;;;;;;5052499;28;20103;-67
2022/05/06 08:22:52;;;;;;;5.50;4.50;;;15.00;69.50;;;;;;5064303;28;20532;-67
2022/05/06 08:25:18;;;;;;;4.93;4.40;;;15.20;68.80;;;;;;5028529;28;20033;-67
2022/05/06 08:27:44;;;;;;;6.20;5.10;;;15.40;69.40;;;;;;5046574;28;20049;-67
2022/05/06 08:30:12;;;;;;;5.33;4.63;;;15.70;68.80;;;;;;5019683;28;20399;-67
2022/05/06 08:32:39;;;;;;;5.27;4.47;;;15.90;68.20;;;;;;5064504;28;20309;-67
2022/05/06 08:35:05;;;;;;;4.73;3.83;;;15.90;66.80;;;;;;5045547;28;20787;-67
2022/05/06 08:37:45;;;;;;;7.30;4.57;;;15.80;66.30;;;;;;5080344;28;20787;-67
2022/05/06 08:40:35;;;;;;;6.17;3.93;;;15.80;65.40;;;;;;5050958;28;20292;-67
2022/05/06 08:43:02;;;;;;;4.10;3.77;;;15.80;66.40;;;;;;5067622;28;20868;-67
2022/05/06 08:51:00;;;;;;;4.40;3.90;;;16.30;66.70;;;;;;5063269;28;20349;-67
2022/05/06 08:53:29;;;;;;;4.40;4.00;;;16.30;65.80;;;;;;5034167;28;20314;-67
2022/05/06 08:55:56;;;;;;;4.20;3.80;;;16.60;66.20;;;;;;5060511;28;20298;-67
2022/05/06 08:58:26;;;;;;;5.07;3.97;;;16.70;65.80;;;;;;5042359;28;20329;-67
2022/05/06 09:01:02;;;;;;;4.80;3.80;;;16.90;65.10;;;;;;5039992;28;20781;-67
2022/05/06 09:03:28;;;;;;;3.87;3.47;;;17.10;64.60;;;;;;5099189;28;20301;-67
2022/05/06 09:05:57;;;;;;;3.67;3.27;;;17.20;64.40;;;;;;5065039;28;20707;-67
2022/05/06 09:08:23;;;;;;;4.33;3.60;;;17.20;64.00;;;;;;5044765;28;20120;-67
2022/05/06 09:11:00;;;;;;;4.70;3.23;;;17.20;63.40;;;;;;5035904;28;20303;-67
2022/05/06 09:13:26;;;;;;;3.40;3.10;;;17.30;63.00;;;;;;5094975;28;20050;-67
2022/05/06 09:19:23;;;;;;;3.10;2.80;;;17.40;62.90;;;;;;5094229;28;20295;-67
2022/05/06 09:22:13;;;;;;;3.93;3.03;;;17.50;62.70;;;;;;5034422;28;20529;-67
2022/05/06 09:24:39;;;;;;;3.53;3.20;;;17.60;62.40;;;;;;5041370;28;20347;-68
2022/05/06 09:27:16;;;;;;;3.30;3.00;;;17.70;62.50;;;;;;5090281;28;20366;-67
2022/05/06 09:29:43;;;;;;;4.17;3.27;;;17.70;62.00;;;;;;5091874;28;20308;-67
2022/05/06 09:32:17;;;;;;;5.63;3.83;;;17.80;62.30;;;;;;5059244;28;20397;-67
2022/05/06 09:34:45;;;;;;;3.95;3.35;;;17.60;61.90;;;;;;5053162;28;20333;-67
2022/05/06 09:37:11;;;;;;;4.40;3.40;;;17.50;62.40;;;;;;5067668;28;20044;-67
2022/05/06 09:39:39;;;;;;;4.90;3.43;;;17.50;62.30;;;;;;5085516;28;20328;-67
2022/05/06 09:42:06;;;;;;;3.50;3.20;;;17.50;61.80;;;;;;5064387;28;20816;-67
2022/05/06 09:44:33;;;;;;;3.30;3.00;;;17.70;62.10;;;;;;5044616;28;20280;-67
2022/05/06 09:47:10;;;;;;;4.87;3.60;;;18.00;62.40;;;;;;5054145;28;20303;-67
2022/05/06 09:49:43;;;;;;;4.30;3.63;;;18.40;60.90;;;;;;5027363;28;20834;-67
2022/05/06 09:52:10;;;;;;;5.00;4.00;;;18.50;61.00;;;;;;5021431;28;20302;-67
2022/05/06 09:54:36;;;;;;;4.77;3.90;;;18.60;59.80;;;;;;5037675;28;20299;-67
2022/05/06 09:57:06;;;;;;;5.07;4.00;;;18.80;60.20;;;;;;5040893;28;20305;-67
2022/05/06 09:59:32;;;;;;;4.67;4.00;;;19.00;59.70;;;;;;5042497;28;20124;-67
2022/05/06 10:01:58;;;;;;;5.40;4.90;;;19.30;58.90;;;;;;5019715;28;20036;-67
2022/05/06 10:04:24;;;;;;;6.63;4.37;;;19.30;58.20;;;;;;5021439;28;20405;-67
2022/05/06 10:06:50;;;;;;;4.90;4.37;;;19.40;58.10;;;;;;5043181;28;20332;-68
2022/05/06 10:09:21;;;;;;;6.43;4.70;;;19.30;58.30;;;;;;5035013;28;20158;-67
2022/05/06 10:11:48;;;;;;;9.80;6.23;;;19.50;58.30;;;;;;5066661;28;20459;-67
2022/05/06 10:14:15;;;;;;;6.30;5.70;;;19.30;56.10;;;;;;5070620;28;20044;-68
2022/05/06 10:16:41;;;;;;;5.33;4.83;;;19.30;56.80;;;;;;5046893;28;20163;-67
2022/05/06 10:19:26;;;;;;;6.40;5.30;;;19.30;57.10;;;;;;5038811;28;20142;-67
2022/05/06 10:21:53;;;;;;;7.00;5.97;;;19.30;56.90;;;;;;5041855;28;20062;-67
2022/05/06 10:24:20;;;;;;;6.27;5.37;;;19.30;56.70;;;;;;5041368;28;20037;-68
2022/05/06 10:26:56;;;;;;;5.80;5.10;;;19.60;57.30;;;;;;5025838;28;20104;-68
2022/05/06 10:32:53;;;;;;;6.23;5.60;;;19.80;56.10;;;;;;5021370;28;20377;-68
2022/05/06 10:35:35;;;;;;;6.23;5.63;;;19.90;54.20;;;;;;5054899;28;20490;-68
2022/05/06 10:38:20;;;;;;;6.17;5.33;;;19.80;55.40;;;;;;5048772;28;20049;-68
2022/05/06 10:40:59;;;;;;;6.20;5.35;;;20.00;56.00;;;;;;5023997;28;20048;-68
2022/05/06 10:43:46;;;;;;;6.30;5.70;;;20.00;55.70;;;;;;5021908;28;20451;-68
2022/05/06 10:46:37;;;;;;;6.60;5.77;;;19.60;55.60;;;;;;5025516;28;20063;-68
2022/05/06 10:49:34;;;;;;;6.93;5.57;;;19.60;56.50;;;;;;5017292;28;20053;-68
2022/05/06 10:52:28;;;;;;;10.03;6.33;;;19.90;55.70;;;;;;5037893;28;20048;-68
2022/05/06 10:54:56;;;;;;;7.90;5.70;;;20.20;54.80;;;;;;5022513;28;20064;-68
2022/05/06 10:57:23;;;;;;;7.23;5.50;;;20.30;55.40;;;;;;5075856;28;20048;-68
2022/05/06 11:00:03;;;;;;;6.20;5.57;;;20.40;55.80;;;;;;5022119;28;20812;-66
2022/05/06 11:02:30;;;;;;;6.83;5.43;;;20.50;55.80;;;;;;5062855;28;20493;-67
2022/05/06 11:05:00;;;;;;;6.33;5.33;;;20.70;55.10;;;;;;5075484;28;20037;-67
2022/05/06 11:07:28;;;;;;;8.27;5.97;;;20.70;55.20;;;;;;5045279;28;20519;-67
2022/05/06 11:09:54;;;;;;;7.00;5.23;;;20.70;54.40;;;;;;5037468;28;20036;-67
2022/05/06 11:12:33;;;;;;;6.33;5.60;;;20.70;54.10;;;;;;5079002;28;20048;-67
2022/05/06 11:14:59;;;;;;;6.47;5.87;;;20.70;53.70;;;;;;5063868;28;20036;-67
2022/05/06 11:17:25;;;;;;;6.13;5.53;;;20.60;53.90;;;;;;5068916;28;20033;-67
2022/05/06 11:19:51;;;;;;;6.50;5.80;;;20.50;53.80;;;;;;5064509;28;20052;-67
2022/05/06 11:22:17;;;;;;;7.03;6.30;;;20.30;53.80;;;;;;5065592;28;20045;-66
2022/05/06 11:24:46;;;;;;;7.47;6.27;;;20.30;54.10;;;;;;5042539;28;20491;-66
2022/05/06 11:27:16;;;;;;;7.30;5.80;;;20.50;54.40;;;;;;5041729;28;20131;-67
2022/05/06 11:29:58;;;;;;;5.87;5.23;;;20.80;53.30;;;;;;5063375;28;20044;-67
2022/05/06 11:32:26;;;;;;;5.83;5.13;;;21.00;53.30;;;;;;5031239;28;20556;-67
2022/05/06 11:34:52;;;;;;;7.00;5.63;;;21.40;53.20;;;;;;5067455;28;20121;-68
2022/05/06 11:37:22;;;;;;;6.30;5.70;;;21.40;52.00;;;;;;5073261;28;20998;-67
2022/05/06 11:39:49;;;;;;;9.83;6.10;;;21.10;52.40;;;;;;5046657;28;20040;-67
2022/05/06 11:42:22;;;;;;;7.10;6.33;;;21.30;52.70;;;;;;5028969;28;20037;-67
2022/05/06 11:47:42;;;;;;;7.87;6.50;;;21.30;51.80;;;;;;5087352;28;20073;-67
2022/05/06 11:50:09;;;;;;;9.33;7.17;;;21.20;53.00;;;;;;5066458;28;20398;-67
2022/05/06 11:52:36;;;;;;;8.47;7.53;;;21.40;53.30;;;;;;5056594;28;20126;-67
2022/05/06 11:55:02;;;;;;;8.70;7.70;;;21.60;53.00;;;;;;5047008;28;20123;-67
2022/05/06 11:57:28;;;;;;;8.70;7.87;;;21.80;52.60;;;;;;5032838;28;20052;-67
2022/05/06 11:59:55;;;;;;;10.43;8.47;;;21.80;53.40;;;;;;5046903;28;20086;-67
2022/05/06 12:02:20;;;;;;;13.67;8.70;;;22.00;51.60;;;;;;5063243;28;20033;-67
2022/05/06 12:04:46;;;;;;;12.50;9.13;;;21.60;52.70;;;;;;5050585;28;20040;-67
2022/05/06 12:07:12;;;;;;;14.00;9.73;;;21.60;52.40;;;;;;5068986;28;20071;-67
2022/05/06 12:09:45;;;;;;;12.03;10.33;;;21.60;53.90;;;;;;5053034;28;20081;-67
2022/05/06 12:12:11;;;;;;;13.43;11.80;;;21.60;52.80;;;;;;5049089;28;20127;-67
2022/05/06 12:14:40;;;;;;;11.53;9.83;;;21.30;51.60;;;;;;5034579;28;20048;-67
2022/05/06 12:17:12;;;;;;;16.43;11.67;;;21.30;52.40;;;;;;5042702;28;20512;-67
2022/05/06 12:19:45;;;;;;;12.50;10.30;;;21.10;53.10;;;;;;5068136;28;20055;-67
2022/05/06 12:22:13;;;;;;;12.67;11.00;;;21.20;53.20;;;;;;5044384;28;20047;-67
2022/05/06 12:24:55;;;;;;;14.00;11.57;;;21.10;53.30;;;;;;5085996;28;20048;-67
2022/05/06 12:27:28;;;;;;;12.23;9.83;;;21.00;52.40;;;;;;5045667;28;20404;-67
2022/05/06 12:29:54;;;;;;;11.73;9.97;;;21.00;52.40;;;;;;5066124;28;20683;-67
2022/05/06 12:32:21;;;;;;;12.70;10.90;;;20.80;53.10;;;;;;5065445;28;20385;-67
2022/05/06 12:34:46;;;;;;;12.53;10.50;;;20.90;53.30;;;;;;5061094;28;20608;-67
2022/05/06 12:37:13;;;;;;;16.90;11.67;;;21.30;53.20;;;;;;5034844;28;20127;-67
2022/05/06 12:39:50;;;;;;;15.67;11.37;;;21.50;52.50;;;;;;5088211;28;20444;-67
2022/05/06 12:42:16;;;;;;;15.33;12.47;;;21.70;51.50;;;;;;5034799;28;20067;-67
2022/05/06 12:44:43;;;;;;;15.23;11.77;;;21.80;52.70;;;;;;5062488;28;20459;-67
2022/05/06 12:50:06;;;;;;;11.53;9.07;;;21.60;52.70;;;;;;5038210;28;20094;-67
2022/05/06 12:52:33;;;;;;;14.37;9.63;;;21.70;49.50;;;;;;5081623;28;20043;-67
2022/05/06 12:54:59;;;;;;;13.63;10.00;;;21.80;51.00;;;;;;5050191;28;20041;-67
2022/05/06 12:57:25;;;;;;;14.67;11.10;;;21.90;50.80;;;;;;5035669;28;20334;-67
2022/05/06 12:59:51;;;;;;;14.93;11.07;;;21.90;51.50;;;;;;5054217;28;20037;-67
2022/05/06 13:02:17;;;;;;;13.80;11.40;;;21.70;50.20;;;;;;5058249;28;20489;-67
2022/05/06 13:04:43;;;;;;;12.67;10.00;;;21.60;51.30;;;;;;5068998;28;20040;-67
2022/05/06 13:07:09;;;;;;;12.77;10.00;;;21.30;50.40;;;;;;5050217;28;20054;-67
2022/05/06 13:09:35;;;;;;;13.40;9.47;;;21.00;51.80;;;;;;5055887;28;20045;-67
2022/05/06 13:12:02;;;;;;;15.33;11.07;;;20.90;52.40;;;;;;5056826;28;20492;-67
2022/05/06 13:14:27;;;;;;;14.30;10.37;;;21.00;52.00;;;;;;5086018;28;20067;-67
2022/05/06 13:16:53;;;;;;;13.30;10.80;;;21.30;52.10;;;;;;5056103;28;20416;-67
2022/05/06 13:19:19;;;;;;;13.70;10.70;;;21.30;50.80;;;;;;5088780;28;20405;-67
2022/05/06 13:21:44;;;;;;;10.97;8.73;;;20.90;52.30;;;;;;5051538;28;20047;-67